Schedule Details

Flight Number: CPX323
Departure: Austin-Bergstrom International Airport (KAUS) at N/A
Arrival: Miami International Airport (KMIA) at N/A
Route: ILEXY2 ZENZI IAH J86 LEV Q102 BAGGS SSCOT5


Current Weather Information
KAUS 192253Z 02013KT 3SM -RA BR BKN007 OVC013 06/04 A2986 RMK AO2 SFC VIS 4 SLP115 P0003 T00610044
KMIA 192253Z 10011KT 10SM SCT027 26/21 A3013 RMK AO2 SLP202 T02560206